Time;durP1;ratioP1;P1;durP2;ratioP2;P2;SDS_P1;SDS_P2;PMS_P1;PMS_P2;Temp;Humidity;BMP_temperature;BMP_pressure;BME280_temperature;BME280_humidity;BME280_pressure;Samples;Min_cycle;Max_cycle;Signal;HPM_P1;HPM_P2
2021/12/29 00:00:36;;;;;;;62.50;19.08;;;;;;;5.14;99.89;99665.56;2072150;28;44774;-64
2021/12/29 00:01:39;;;;;;;61.03;18.90;;;;;;;5.14;99.57;99671.72;2071895;28;45040;-64
2021/12/29 00:02:41;;;;;;;56.53;20.33;;;;;;;5.13;100.00;99670.00;2072654;28;46056;-64
2021/12/29 00:03:43;;;;;;;56.33;19.15;;;;;;;5.13;99.91;99675.31;2072266;28;44055;-64
2021/12/29 00:04:45;;;;;;;54.47;19.13;;;;;;;5.14;100.00;99676.16;2071549;28;44954;-64
2021/12/29 00:05:51;;;;;;;54.97;17.92;;;;;;;5.15;100.00;99677.91;2072625;28;43518;-64
2021/12/29 00:06:56;;;;;;;49.58;16.85;;;;;;;5.15;100.00;99672.59;2071600;28;44294;-63
2021/12/29 00:07:58;;;;;;;49.20;16.25;;;;;;;5.15;99.81;99677.91;2071666;28;45831;-64
2021/12/29 00:09:02;;;;;;;55.50;16.73;;;;;;;5.14;100.00;99674.38;2072721;28;20062;-64
2021/12/29 00:10:05;;;;;;;69.97;20.45;;;;;;;5.14;99.96;99679.69;2071111;28;46285;-64
2021/12/29 00:11:07;;;;;;;66.53;20.10;;;;;;;5.14;99.82;99673.50;2072232;28;44742;-64
2021/12/29 00:12:10;;;;;;;56.53;18.33;;;;;;;5.14;99.96;99677.03;2071425;28;44149;-64
2021/12/29 00:13:12;;;;;;;48.22;14.50;;;;;;;5.15;100.00;99678.78;2071820;28;45567;-64
2021/12/29 00:14:13;;;;;;;60.25;19.75;;;;;;;5.15;100.00;99680.53;2071842;28;44649;-64
2021/12/29 00:15:17;;;;;;;65.78;20.00;;;;;;;5.14;100.00;99679.69;2072516;28;45634;-64
2021/12/29 00:16:18;;;;;;;53.95;18.55;;;;;;;5.16;99.46;99675.22;2071716;28;45974;-64
2021/12/29 00:17:21;;;;;;;60.38;19.67;;;;;;;5.16;99.94;99682.31;2072174;28;43040;-64
2021/12/29 00:18:29;;;;;;;62.50;19.13;;;;;;;5.14;100.00;99679.69;2072077;28;45362;-64
2021/12/29 00:19:33;;;;;;;55.63;15.40;;;;;;;5.15;99.95;99683.19;2073383;28;25608;-64
2021/12/29 00:20:34;;;;;;;56.28;18.13;;;;;;;5.15;100.00;99692.06;2072110;28;44259;-64
2021/12/29 00:21:37;;;;;;;58.03;19.63;;;;;;;5.15;99.95;99691.16;2072110;28;45632;-64
2021/12/29 00:22:39;;;;;;;47.92;18.73;;;;;;;5.14;99.89;99692.09;2072351;28;44089;-64
2021/12/29 00:23:43;;;;;;;50.83;18.85;;;;;;;5.08;100.00;99700.16;2071961;28;46590;-64
2021/12/29 00:24:58;;;;;;;59.83;19.55;;;;;;;5.10;99.76;99696.59;2072703;28;29040;-64
2021/12/29 00:26:00;;;;;;;51.53;18.35;;;;;;;5.11;100.00;99693.00;2072021;28;44299;-64
2021/12/29 00:27:04;;;;;;;48.67;17.17;;;;;;;5.12;99.91;99692.13;2071738;28;43826;-64
2021/12/29 00:28:06;;;;;;;49.83;17.30;;;;;;;5.11;100.00;99695.66;2072515;28;21040;-64
2021/12/29 00:29:07;;;;;;;50.28;14.60;;;;;;;5.12;100.00;99702.72;2071819;28;46456;-64
2021/12/29 00:30:12;;;;;;;50.95;18.67;;;;;;;5.10;100.00;99701.88;2072363;28;20863;-64
2021/12/29 00:31:32;;;;;;;56.65;18.55;;;;;;;5.11;100.00;99706.28;2071793;28;20832;-64
2021/12/29 00:32:53;;;;;;;48.70;17.95;;;;;;;5.11;100.00;99716.88;2071762;28;20082;-64
2021/12/29 00:34:33;;;;;;;58.42;17.50;;;;;;;5.11;100.00;99721.31;2073178;28;20077;-64
2021/12/29 00:35:53;;;;;;;51.08;16.98;;;;;;;5.11;100.00;99722.19;2073096;28;20042;-63
2021/12/29 00:37:14;;;;;;;62.72;19.58;;;;;;;5.12;100.00;99717.78;2072873;28;20180;-63
2021/12/29 00:38:37;;;;;;;53.85;17.75;;;;;;;5.12;100.00;99723.09;2072484;28;20046;-63
2021/12/29 00:40:04;;;;;;;53.33;18.30;;;;;;;5.11;99.92;99722.19;2073087;28;20108;-64
2021/12/29 00:41:24;;;;;;;59.85;19.77;;;;;;;5.10;99.99;99731.06;2072526;28;20038;-64
2021/12/29 00:42:34;;;;;;;58.55;19.27;;;;;;;5.11;100.00;99726.63;2072372;28;20813;-64
2021/12/29 00:44:11;;;;;;;55.97;19.15;;;;;;;5.09;100.00;99739.06;2073243;28;20189;-64
2021/12/29 00:45:32;;;;;;;59.20;19.88;;;;;;;5.09;100.00;99739.06;2072359;28;20153;-63
2021/12/29 00:46:38;;;;;;;58.75;19.90;;;;;;;5.10;99.95;99741.69;2071464;28;44966;-64
2021/12/29 00:47:40;;;;;;;55.83;20.33;;;;;;;5.09;100.00;99733.75;2072124;28;43584;-64
2021/12/29 00:48:44;;;;;;;68.78;19.38;;;;;;;5.08;100.00;99739.94;2071370;28;44451;-63
2021/12/29 00:49:48;;;;;;;58.70;20.40;;;;;;;5.08;100.00;99739.94;2072851;28;20157;-64
2021/12/29 00:50:50;;;;;;;53.28;20.15;;;;;;;5.08;99.95;99743.50;2071401;28;44905;-64
2021/12/29 00:51:52;;;;;;;67.05;20.42;;;;;;;5.08;100.00;99750.56;2071885;28;47816;-64
2021/12/29 00:52:53;;;;;;;62.58;20.25;;;;;;;5.07;100.00;99746.19;2072230;28;44714;-64
2021/12/29 00:53:55;;;;;;;67.57;20.90;;;;;;;5.06;100.00;99744.41;2071325;28;45337;-64
2021/12/29 00:54:57;;;;;;;50.20;18.02;;;;;;;5.08;100.00;99746.16;2071500;28;44749;-64
2021/12/29 00:56:00;;;;;;;63.60;20.00;;;;;;;5.07;100.00;99744.38;2071966;28;45376;-64
2021/12/29 00:57:02;;;;;;;49.40;20.17;;;;;;;5.07;100.00;99741.72;2070780;28;45234;-64
2021/12/29 00:58:08;;;;;;;67.10;21.73;;;;;;;5.09;100.00;99744.38;2063941;28;33955;-64
2021/12/29 00:59:10;;;;;;;63.67;20.58;;;;;;;5.08;99.82;99747.91;2071839;28;45323;-64
2021/12/29 01:00:17;;;;;;;53.58;19.38;;;;;;;5.08;99.71;99754.09;2072003;28;44947;-64
2021/12/29 01:01:21;;;;;;;68.43;21.00;;;;;;;5.10;100.00;99762.91;2072088;28;43171;-64
2021/12/29 01:02:23;;;;;;;71.80;21.40;;;;;;;5.09;99.98;99755.84;2070863;28;45346;-64
2021/12/29 01:03:27;;;;;;;63.33;21.33;;;;;;;5.06;100.00;99761.22;2071597;28;45748;-64
2021/12/29 01:04:28;;;;;;;65.32;21.25;;;;;;;5.08;100.00;99764.72;2072122;28;44176;-64
2021/12/29 01:05:30;;;;;;;61.90;21.20;;;;;;;5.06;100.00;99765.63;2071914;28;45234;-64
2021/12/29 01:06:32;;;;;;;63.15;21.92;;;;;;;5.06;100.00;99768.28;2072752;28;31042;-64
2021/12/29 01:07:36;;;;;;;81.28;21.67;;;;;;;5.07;99.70;99773.56;2071926;28;45625;-64
2021/12/29 01:08:38;;;;;;;67.90;21.50;;;;;;;5.07;100.00;99784.19;2071429;28;44432;-64
2021/12/29 01:09:42;;;;;;;77.50;23.05;;;;;;;5.08;100.00;99779.75;2072311;28;29127;-64
2021/12/29 01:10:44;;;;;;;57.03;22.25;;;;;;;5.07;100.00;99783.31;2072039;28;46385;-64
2021/12/29 01:11:46;;;;;;;79.35;22.90;;;;;;;5.05;100.00;99783.34;2071792;28;43556;-63
2021/12/29 01:12:56;;;;;;;66.40;22.02;;;;;;;5.06;100.00;99787.75;2071911;28;45708;-64
2021/12/29 01:13:58;;;;;;;67.82;22.60;;;;;;;5.08;100.00;99790.34;2072002;28;44483;-63
2021/12/29 01:15:02;;;;;;;76.53;22.45;;;;;;;5.07;100.00;99791.28;2071825;28;44106;-64
2021/12/29 01:17:13;;;;;;;73.10;25.15;;;;;;;5.05;100.00;99795.75;2071008;28;43481;-65
2021/12/29 01:18:15;;;;;;;65.78;23.17;;;;;;;5.05;100.00;99793.94;2071843;28;45495;-63
2021/12/29 01:19:23;;;;;;;77.40;24.55;;;;;;;5.06;100.00;99798.38;2072284;28;45689;-64
2021/12/29 01:20:26;;;;;;;69.95;23.45;;;;;;;5.04;100.00;99786.88;2072118;28;43770;-64
2021/12/29 01:21:33;;;;;;;71.03;23.75;;;;;;;5.04;99.76;99789.53;2072193;28;20165;-64
2021/12/29 01:22:37;;;;;;;72.63;23.55;;;;;;;5.05;99.99;99791.28;2063611;28;43447;-64
2021/12/29 01:23:38;;;;;;;72.50;23.65;;;;;;;5.06;100.00;99789.50;2063787;28;43904;-64
2021/12/29 01:24:42;;;;;;;69.95;24.85;;;;;;;5.04;100.00;99792.19;2063483;28;44943;-63
2021/12/29 01:25:44;;;;;;;72.28;22.58;;;;;;;5.05;100.00;99788.66;2063781;28;46028;-64
2021/12/29 01:26:48;;;;;;;82.28;24.67;;;;;;;5.05;100.00;99788.66;2064385;28;43557;-64
2021/12/29 01:27:50;;;;;;;73.93;24.45;;;;;;;5.05;100.00;99788.66;2071603;28;46050;-64
2021/12/29 01:28:52;;;;;;;80.38;24.45;;;;;;;5.05;100.00;99790.44;2072462;28;27664;-64
2021/12/29 01:29:53;;;;;;;81.65;24.55;;;;;;;5.07;100.00;99794.78;2071882;28;46535;-64
2021/12/29 01:30:55;;;;;;;69.07;23.80;;;;;;;5.08;99.88;99795.66;2071522;28;44911;-63
2021/12/29 01:31:59;;;;;;;74.30;22.05;;;;;;;5.08;100.00;99803.63;2071764;28;28818;-64
2021/12/29 01:33:05;;;;;;;81.97;23.65;;;;;;;5.08;99.93;99808.94;2071391;28;43929;-64
2021/12/29 01:34:08;;;;;;;79.13;25.40;;;;;;;5.04;100.00;99810.75;2071518;28;45310;-64
2021/12/29 01:35:13;;;;;;;82.30;24.95;;;;;;;5.07;100.00;99813.38;2071426;28;47359;-64
2021/12/29 01:36:15;;;;;;;91.65;26.48;;;;;;;5.06;100.00;99819.59;2071319;28;44582;-64
2021/12/29 01:37:19;;;;;;;76.10;25.33;;;;;;;5.03;100.00;99821.44;2070537;28;45262;-64
2021/12/29 01:38:21;;;;;;;78.38;24.20;;;;;;;5.05;99.98;99827.56;2072047;28;45895;-63
2021/12/29 01:39:23;;;;;;;95.00;25.75;;;;;;;5.04;100.00;99831.97;2071954;28;45379;-64
2021/12/29 01:40:28;;;;;;;69.63;24.23;;;;;;;5.05;100.00;99832.88;2072771;28;20178;-64
2021/12/29 01:41:30;;;;;;;77.75;25.30;;;;;;;5.04;100.00;99845.25;2072272;28;43662;-63
2021/12/29 01:42:32;;;;;;;75.88;25.60;;;;;;;5.05;100.00;99843.50;2070748;28;45840;-64
2021/12/29 01:43:34;;;;;;;77.75;25.00;;;;;;;5.04;100.00;99849.69;2071097;28;45687;-64
2021/12/29 01:44:36;;;;;;;89.28;24.67;;;;;;;5.01;100.00;99842.66;2071316;28;45593;-64
2021/12/29 01:45:37;;;;;;;66.72;23.23;;;;;;;5.03;100.00;99842.66;2072043;28;44272;-64
2021/12/29 01:46:41;;;;;;;78.55;24.40;;;;;;;5.02;100.00;99843.53;2072325;28;28454;-63
2021/12/29 01:47:43;;;;;;;71.63;23.90;;;;;;;5.02;100.00;99835.56;2071146;28;45599;-63
2021/12/29 01:48:44;;;;;;;90.18;25.98;;;;;;;5.01;100.00;99839.13;2071452;28;44041;-64
2021/12/29 01:49:46;;;;;;;89.80;25.58;;;;;;;5.01;99.99;99842.66;2071853;28;44737;-64
2021/12/29 01:50:51;;;;;;;85.13;24.73;;;;;;;5.01;99.55;99847.97;2071694;28;44065;-63
2021/12/29 01:52:03;;;;;;;76.20;24.27;;;;;;;5.01;100.00;99844.44;2071911;28;45740;-64
2021/12/29 01:53:08;;;;;;;83.85;25.08;;;;;;;5.01;100.00;99847.06;2062945;28;42932;-64
2021/12/29 01:54:23;;;;;;;85.53;23.27;;;;;;;5.02;99.40;99854.16;2064598;28;46317;-64
2021/12/29 01:55:27;;;;;;;103.97;26.55;;;;;;;5.01;100.00;99863.00;2071542;28;43451;-64
2021/12/29 01:56:31;;;;;;;90.07;23.73;;;;;;;5.01;100.00;99866.53;2071596;28;44246;-64
2021/12/29 01:57:33;;;;;;;99.72;26.95;;;;;;;5.02;100.00;99875.38;2071788;28;45991;-64
2021/12/29 01:58:35;;;;;;;87.63;27.95;;;;;;;5.00;100.00;99872.75;2071452;28;45511;-64
2021/12/29 01:59:39;;;;;;;99.20;25.58;;;;;;;5.01;100.00;99871.84;2071870;28;24320;-64
2021/12/29 02:00:41;;;;;;;98.13;26.55;;;;;;;5.01;99.78;99873.59;2071387;28;44391;-63
2021/12/29 02:01:43;;;;;;;88.28;28.33;;;;;;;4.98;100.00;99880.72;2071440;28;44516;-64
2021/12/29 02:02:46;;;;;;;89.13;27.58;;;;;;;5.00;99.88;99877.19;2072300;28;20046;-63
2021/12/29 02:03:48;;;;;;;102.43;27.75;;;;;;;5.00;100.00;99877.19;2071377;28;46501;-64
2021/12/29 02:04:49;;;;;;;91.53;26.77;;;;;;;5.01;100.00;99873.59;2071180;28;45576;-64
2021/12/29 02:05:53;;;;;;;95.85;26.52;;;;;;;5.01;99.48;99878.91;2071345;28;43444;-64
2021/12/29 02:06:55;;;;;;;91.60;27.70;;;;;;;5.01;100.00;99885.13;2071203;28;44161;-64
2021/12/29 02:07:56;;;;;;;90.47;26.33;;;;;;;5.02;100.00;99884.19;2072446;28;25339;-64
2021/12/29 02:08:58;;;;;;;102.40;29.13;;;;;;;4.99;100.00;99886.91;2070973;28;44780;-64
2021/12/29 02:10:00;;;;;;;93.30;27.88;;;;;;;5.02;99.95;99885.97;2071671;28;32706;-64
2021/12/29 02:11:07;;;;;;;90.47;25.75;;;;;;;5.02;100.00;99892.16;2071435;28;30350;-64
2021/12/29 02:12:09;;;;;;;103.05;26.48;;;;;;;5.01;100.00;99889.53;2071138;28;45140;-64
2021/12/29 02:13:12;;;;;;;115.65;29.30;;;;;;;5.01;100.00;99902.78;2071082;28;44441;-64
2021/12/29 02:14:16;;;;;;;99.43;27.00;;;;;;;5.01;100.00;99903.69;2070321;28;43459;-64
2021/12/29 02:15:19;;;;;;;91.88;28.23;;;;;;;5.01;100.00;99901.03;2071817;28;45665;-64
2021/12/29 02:16:20;;;;;;;85.70;23.60;;;;;;;5.02;100.00;99901.91;2071406;28;32075;-64
2021/12/29 02:17:22;;;;;;;100.32;29.17;;;;;;;5.01;100.00;99902.78;2071736;28;44325;-64
2021/12/29 02:18:26;;;;;;;107.07;28.58;;;;;;;5.02;100.00;99901.91;2071369;28;47932;-64
2021/12/29 02:19:28;;;;;;;99.38;28.75;;;;;;;5.02;99.77;99908.06;2071093;28;43399;-64
2021/12/29 02:20:32;;;;;;;102.82;27.75;;;;;;;5.02;99.78;99908.06;2071249;28;46640;-64
2021/12/29 02:21:34;;;;;;;92.00;26.10;;;;;;;5.02;100.00;99913.38;2071695;28;44727;-64
2021/12/29 02:22:43;;;;;;;101.47;27.55;;;;;;;5.03;99.52;99914.28;2071888;28;45601;-64
2021/12/29 02:23:55;;;;;;;94.30;29.35;;;;;;;5.01;100.00;99921.34;2070833;28;44917;-64
2021/12/29 02:25:18;;;;;;;91.28;27.85;;;;;;;5.00;100.00;99915.19;2072497;28;25532;-64
2021/12/29 02:26:22;;;;;;;97.53;25.83;;;;;;;5.01;99.92;99913.41;2071388;28;46057;-64
2021/12/29 02:27:24;;;;;;;93.65;27.40;;;;;;;5.00;100.00;99925.78;2071253;28;45968;-64
2021/12/29 02:28:34;;;;;;;94.63;26.20;;;;;;;5.01;99.94;99924.91;2070949;28;44226;-64
2021/12/29 02:29:42;;;;;;;92.55;27.70;;;;;;;4.99;100.00;99934.66;2071493;28;20116;-63
2021/12/29 02:30:47;;;;;;;93.05;28.73;;;;;;;4.98;100.00;99927.59;2072320;28;20050;-64
2021/12/29 02:31:54;;;;;;;110.55;28.08;;;;;;;4.98;100.00;99928.47;2071172;28;45533;-65
2021/12/29 02:33:00;;;;;;;99.57;27.83;;;;;;;4.98;100.00;99933.78;2070894;28;45243;-64
2021/12/29 02:34:05;;;;;;;96.38;26.65;;;;;;;4.98;100.00;99932.91;2071484;28;43136;-64
2021/12/29 02:35:12;;;;;;;88.15;28.33;;;;;;;4.98;100.00;99933.78;2071727;28;20054;-64
2021/12/29 02:36:17;;;;;;;84.82;24.08;;;;;;;4.98;100.00;99933.78;2071437;28;44903;-64
2021/12/29 02:37:20;;;;;;;84.53;28.25;;;;;;;5.00;99.91;99935.53;2071249;28;44989;-64
2021/12/29 02:38:35;;;;;;;98.55;26.83;;;;;;;4.98;100.00;99941.72;2071509;28;45313;-64
2021/12/29 02:39:38;;;;;;;91.05;26.05;;;;;;;5.00;100.00;99940.84;2071380;28;43767;-63
2021/12/29 02:40:40;;;;;;;99.78;28.27;;;;;;;4.99;99.81;99937.31;2072174;28;30515;-64
2021/12/29 02:41:50;;;;;;;94.60;27.65;;;;;;;4.98;99.86;99947.03;2071962;28;20042;-64
2021/12/29 02:42:52;;;;;;;108.60;27.80;;;;;;;4.98;100.00;99933.78;2071411;28;45247;-64
2021/12/29 02:44:01;;;;;;;108.30;30.27;;;;;;;4.97;100.00;99937.34;2071313;28;44008;-64
2021/12/29 02:45:05;;;;;;;93.05;30.38;;;;;;;4.97;99.70;99952.34;2071778;28;44556;-64
2021/12/29 02:46:13;;;;;;;116.10;28.05;;;;;;;5.00;99.48;99951.44;2071848;28;37676;-64
2021/12/29 02:47:17;;;;;;;91.85;28.85;;;;;;;4.95;100.00;99955.06;2071409;28;44964;-64
2021/12/29 02:48:21;;;;;;;101.85;27.33;;;;;;;4.97;99.73;99963.88;2071010;28;46862;-64
2021/12/29 02:49:26;;;;;;;124.20;31.30;;;;;;;4.97;99.79;99958.56;2071433;28;29758;-64
2021/12/29 02:50:27;;;;;;;96.88;29.27;;;;;;;4.97;99.98;99955.91;2071056;28;43169;-64
2021/12/29 02:51:33;;;;;;;106.47;29.67;;;;;;;4.96;100.00;99959.44;2070665;28;45629;-64
2021/12/29 02:52:35;;;;;;;119.10;30.73;;;;;;;4.96;100.00;99956.78;2071333;28;44660;-63
2021/12/29 02:53:37;;;;;;;96.50;27.58;;;;;;;4.98;99.75;99959.44;2071976;28;44009;-63
2021/12/29 02:54:39;;;;;;;109.25;29.67;;;;;;;4.98;99.95;99959.44;2070324;28;46618;-64
2021/12/29 02:55:41;;;;;;;130.57;32.42;;;;;;;4.96;100.00;99946.19;2071109;28;44860;-63
2021/12/29 02:56:48;;;;;;;107.53;30.95;;;;;;;4.95;99.98;99949.75;2071496;28;45502;-64
2021/12/29 02:57:49;;;;;;;119.05;29.65;;;;;;;4.98;100.00;99960.28;2071274;28;46811;-63
2021/12/29 02:58:51;;;;;;;111.15;29.50;;;;;;;4.97;99.75;99955.00;2071228;28;44436;-64
2021/12/29 02:59:53;;;;;;;108.28;29.70;;;;;;;4.98;100.00;99959.44;2070992;28;45430;-64
2021/12/29 03:00:56;;;;;;;129.48;32.80;;;;;;;4.98;100.00;99962.09;2072258;28;20046;-64
2021/12/29 03:01:58;;;;;;;116.13;30.30;;;;;;;4.96;100.00;99958.59;2071456;28;45520;-64
2021/12/29 03:03:00;;;;;;;114.10;31.77;;;;;;;4.96;100.00;99962.09;2072284;28;26775;-63
2021/12/29 03:04:05;;;;;;;137.70;33.38;;;;;;;4.96;100.00;99959.44;2071615;28;43814;-64
2021/12/29 03:05:08;;;;;;;112.35;28.63;;;;;;;4.95;100.00;99965.69;2070834;28;45357;-64
2021/12/29 03:06:12;;;;;;;133.80;34.13;;;;;;;4.96;100.00;99974.50;2071627;28;30721;-64
2021/12/29 03:07:13;;;;;;;137.23;32.47;;;;;;;4.96;100.00;99977.16;2071688;28;45460;-64
2021/12/29 03:08:17;;;;;;;125.03;32.60;;;;;;;4.92;100.00;99980.75;2070564;28;46158;-64
2021/12/29 03:09:21;;;;;;;133.55;31.95;;;;;;;4.95;99.75;99976.28;2072369;28;20062;-64
2021/12/29 03:10:26;;;;;;;103.15;28.13;;;;;;;4.94;99.84;99979.81;2070768;28;44209;-63
2021/12/29 03:11:28;;;;;;;147.27;31.85;;;;;;;4.93;100.00;99983.34;2071864;28;35568;-64
2021/12/29 03:12:29;;;;;;;146.77;33.00;;;;;;;4.95;100.00;99983.34;2071375;28;45518;-64
2021/12/29 03:13:36;;;;;;;142.20;34.28;;;;;;;4.92;100.00;99978.97;2071960;28;20081;-64
2021/12/29 03:14:50;;;;;;;133.00;31.65;;;;;;;4.92;100.00;99981.63;2071231;28;45094;-64
2021/12/29 03:15:52;;;;;;;119.18;31.55;;;;;;;4.92;100.00;99980.75;2070094;28;46291;-63
2021/12/29 03:16:54;;;;;;;123.57;32.55;;;;;;;4.92;100.00;99986.94;2070400;28;44545;-64
2021/12/29 03:17:56;;;;;;;120.75;31.70;;;;;;;4.91;100.00;99987.81;2071039;28;44972;-64
2021/12/29 03:18:57;;;;;;;132.88;32.88;;;;;;;4.92;100.00;99994.03;2071407;28;44270;-64
2021/12/29 03:19:59;;;;;;;123.65;29.95;;;;;;;4.92;100.00;99991.38;2071288;28;46144;-64
2021/12/29 03:21:01;;;;;;;110.72;30.75;;;;;;;4.91;100.00;99990.47;2070764;28;45683;-64
2021/12/29 03:22:03;;;;;;;137.65;32.03;;;;;;;4.92;100.00;100001.97;2071245;28;46414;-64
2021/12/29 03:23:05;;;;;;;127.38;31.27;;;;;;;4.91;100.00;100000.22;2071645;28;42223;-63
2021/12/29 03:24:08;;;;;;;116.57;31.60;;;;;;;4.90;100.00;99998.44;2071444;28;42311;-64
2021/12/29 03:25:10;;;;;;;122.57;32.38;;;;;;;4.88;100.00;99995.84;2070837;28;46029;-64
2021/12/29 03:26:11;;;;;;;124.22;30.50;;;;;;;4.88;100.00;99997.59;2071385;28;31154;-64
2021/12/29 03:27:13;;;;;;;140.80;31.73;;;;;;;4.88;99.90;99998.50;2070698;28;43993;-64
2021/12/29 03:28:16;;;;;;;145.52;32.97;;;;;;;4.89;99.91;100002.88;2071150;28;44037;-63
2021/12/29 03:29:20;;;;;;;160.27;31.70;;;;;;;4.89;100.00;100000.22;2071460;28;45780;-64
2021/12/29 03:30:22;;;;;;;158.93;33.28;;;;;;;4.87;100.00;99995.88;2071251;28;44670;-64
2021/12/29 03:31:26;;;;;;;139.60;31.65;;;;;;;4.88;99.92;99998.50;2071398;28;45167;-64
2021/12/29 03:32:42;;;;;;;135.80;33.20;;;;;;;4.86;100.00;99997.63;2070542;28;46839;-64
2021/12/29 03:33:46;;;;;;;144.93;32.05;;;;;;;4.87;100.00;100004.69;2071332;28;44488;-64
2021/12/29 03:34:48;;;;;;;139.75;31.50;;;;;;;4.86;99.57;100007.34;2071251;28;45715;-64
2021/12/29 03:36:00;;;;;;;128.13;31.30;;;;;;;4.86;99.95;100013.53;2071195;28;45223;-64
2021/12/29 03:37:02;;;;;;;138.85;32.00;;;;;;;4.87;99.95;100019.72;2071468;28;45166;-63
2021/12/29 03:38:09;;;;;;;126.00;28.08;;;;;;;4.87;100.00;100012.63;2071220;28;45149;-64
2021/12/29 03:39:11;;;;;;;126.20;30.75;;;;;;;4.86;100.00;100015.31;2071728;28;44774;-64
2021/12/29 03:40:13;;;;;;;157.88;31.25;;;;;;;4.85;99.97;100017.09;2070531;28;45810;-63
2021/12/29 03:41:17;;;;;;;139.20;31.40;;;;;;;4.85;100.00;100017.09;2070819;28;45290;-63
2021/12/29 03:42:19;;;;;;;144.38;31.05;;;;;;;4.86;100.00;100017.97;2071172;28;43399;-63
2021/12/29 03:43:26;;;;;;;141.25;31.88;;;;;;;4.85;100.00;100025.06;2070997;28;46793;-64
2021/12/29 03:44:28;;;;;;;186.07;34.15;;;;;;;4.83;100.00;100018.00;2071185;28;45799;-64
2021/12/29 03:45:29;;;;;;;125.80;29.33;;;;;;;4.84;100.00;100023.28;2072078;28;45353;-64
2021/12/29 03:46:33;;;;;;;162.38;32.17;;;;;;;4.85;100.00;100024.19;2072454;28;45428;-63
2021/12/29 03:47:37;;;;;;;162.13;33.08;;;;;;;4.83;100.00;100024.19;2072555;28;44748;-64
2021/12/29 03:48:43;;;;;;;174.75;34.30;;;;;;;4.83;100.00;100021.56;2071693;28;44086;-63
2021/12/29 03:49:45;;;;;;;176.05;31.00;;;;;;;4.83;100.00;100024.19;2072603;28;45973;-64
2021/12/29 03:50:48;;;;;;;141.23;32.65;;;;;;;4.82;100.00;100021.56;2072800;28;44672;-64
2021/12/29 03:51:49;;;;;;;165.35;32.33;;;;;;;4.84;100.00;100014.47;2103606;22;45227;-65
2021/12/29 03:52:51;;;;;;;165.77;34.38;;;;;;;4.81;100.00;100026.00;2092068;28;23727;-65
2021/12/29 03:53:53;;;;;;;160.27;31.60;;;;;;;4.82;100.00;100030.41;2089357;28;44455;-66
2021/12/29 03:54:54;;;;;;;166.25;33.83;;;;;;;4.80;100.00;100028.69;2089033;28;46137;-63
2021/12/29 03:55:57;;;;;;;138.68;32.42;;;;;;;4.80;100.00;100029.53;2082074;28;27126;-64
2021/12/29 03:57:02;;;;;;;136.65;31.35;;;;;;;4.81;100.00;100031.31;2079904;28;45101;-65
2021/12/29 03:58:03;;;;;;;163.20;31.52;;;;;;;4.81;100.00;100031.31;2079689;28;42666;-64
2021/12/29 03:59:05;;;;;;;144.90;32.55;;;;;;;4.80;100.00;100026.88;2080486;28;44404;-64
2021/12/29 04:00:13;;;;;;;138.95;31.17;;;;;;;4.80;100.00;100037.50;2080730;28;44579;-64
2021/12/29 04:01:16;;;;;;;149.25;32.10;;;;;;;4.82;100.00;100037.47;2081281;28;43200;-64
2021/12/29 04:02:18;;;;;;;148.20;30.05;;;;;;;4.81;100.00;100035.72;2080698;28;43214;-64
2021/12/29 04:03:20;;;;;;;154.18;31.25;;;;;;;4.82;100.00;100041.00;2080852;28;44634;-64
2021/12/29 04:04:23;;;;;;;136.90;31.60;;;;;;;4.82;100.00;100046.31;2080716;28;44066;-62
2021/12/29 04:05:25;;;;;;;137.10;30.15;;;;;;;4.82;100.00;100053.41;2079930;28;44928;-63
2021/12/29 04:06:27;;;;;;;170.63;33.75;;;;;;;4.80;100.00;100055.19;2081657;28;20949;-66
2021/12/29 04:07:31;;;;;;;141.05;31.58;;;;;;;4.80;100.00;100057.84;2080945;28;44256;-64
2021/12/29 04:08:32;;;;;;;166.30;32.53;;;;;;;4.80;100.00;100057.84;2080317;28;46001;-63
2021/12/29 04:09:34;;;;;;;144.02;31.75;;;;;;;4.79;100.00;100056.94;2072355;28;46595;-65
2021/12/29 04:10:36;;;;;;;144.18;30.67;;;;;;;4.79;100.00;100051.63;2071878;28;45338;-63
2021/12/29 04:11:38;;;;;;;127.65;29.48;;;;;;;4.79;100.00;100062.25;2079240;28;43406;-63
2021/12/29 04:12:41;;;;;;;140.73;30.25;;;;;;;4.81;100.00;100062.22;2081691;28;20160;-64
2021/12/29 04:13:45;;;;;;;164.88;31.38;;;;;;;4.80;99.90;100057.84;2080894;28;45864;-64
2021/12/29 04:14:47;;;;;;;152.40;32.08;;;;;;;4.80;100.00;100064.00;2080918;28;44117;-65
2021/12/29 04:15:49;;;;;;;146.45;30.25;;;;;;;4.78;100.00;100058.72;2082378;28;45131;-64
2021/12/29 04:16:50;;;;;;;145.95;30.73;;;;;;;4.81;100.00;100065.78;2084996;28;44575;-64
2021/12/29 04:17:58;;;;;;;149.20;31.90;;;;;;;4.80;100.00;100064.00;2084052;28;44211;-64
2021/12/29 04:19:17;;;;;;;138.93;31.35;;;;;;;4.80;100.00;100066.66;2080691;28;44565;-64
2021/12/29 04:21:47;;;;;;;101.07;26.58;;;;;;;4.79;100.00;100070.19;2080323;28;45136;-64
2021/12/29 04:22:49;;;;;;;149.32;30.95;;;;;;;4.81;100.00;100078.16;2081727;28;43187;-63
2021/12/29 04:23:52;;;;;;;146.50;30.98;;;;;;;4.80;100.00;100071.09;2081518;28;43224;-64
2021/12/29 04:24:54;;;;;;;137.77;30.92;;;;;;;4.82;100.00;100079.91;2080982;28;45182;-63
2021/12/29 04:25:57;;;;;;;160.77;30.73;;;;;;;4.81;100.00;100084.34;2080577;28;43460;-64
2021/12/29 04:27:00;;;;;;;116.18;29.45;;;;;;;4.81;100.00;100083.44;2080497;28;45639;-64
2021/12/29 04:28:04;;;;;;;118.93;30.40;;;;;;;4.81;100.00;100092.31;2081006;28;45883;-64
2021/12/29 04:29:09;;;;;;;126.00;30.50;;;;;;;4.82;100.00;100090.53;2080680;28;43940;-64
2021/12/29 04:30:11;;;;;;;105.30;28.20;;;;;;;4.81;100.00;100089.66;2080540;28;46346;-64
2021/12/29 04:31:13;;;;;;;122.32;31.55;;;;;;;4.79;100.00;100091.41;2080375;28;43385;-63
2021/12/29 04:32:15;;;;;;;105.45;28.05;;;;;;;4.79;100.00;100088.75;2072079;28;45309;-64
2021/12/29 04:33:18;;;;;;;126.45;29.60;;;;;;;4.81;100.00;100096.72;2072472;28;46011;-64
2021/12/29 04:34:20;;;;;;;102.45;29.13;;;;;;;4.80;100.00;100087.00;2072614;28;45480;-64
2021/12/29 04:35:23;;;;;;;132.35;28.90;;;;;;;4.81;100.00;100092.31;2072512;28;46665;-65
2021/12/29 04:36:25;;;;;;;119.50;27.40;;;;;;;4.80;100.00;100093.19;2073533;28;43485;-65
2021/12/29 04:37:27;;;;;;;120.65;30.05;;;;;;;4.79;99.66;100094.06;2080542;28;45327;-64
2021/12/29 04:38:28;;;;;;;117.60;30.20;;;;;;;4.80;100.00;100092.31;2080618;28;45603;-64
2021/12/29 04:39:32;;;;;;;115.47;29.75;;;;;;;4.80;100.00;100095.84;2081713;28;20143;-64
2021/12/29 04:40:34;;;;;;;103.60;29.25;;;;;;;4.81;100.00;100094.06;2080507;28;45331;-64
2021/12/29 04:41:36;;;;;;;95.03;28.52;;;;;;;4.79;100.00;100094.06;2079474;28;44647;-64
2021/12/29 04:42:37;;;;;;;106.18;28.95;;;;;;;4.77;100.00;100091.47;2081298;28;27570;-64
2021/12/29 04:43:44;;;;;;;106.40;26.17;;;;;;;4.80;100.00;100101.16;2081756;28;20115;-64
2021/12/29 04:44:46;;;;;;;106.13;27.33;;;;;;;4.79;100.00;100107.34;2080487;28;43904;-65
2021/12/29 04:45:49;;;;;;;113.25;29.27;;;;;;;4.80;100.00;100109.09;2080757;28;45144;-63
2021/12/29 04:46:54;;;;;;;109.00;27.33;;;;;;;4.81;100.00;100110.88;2079788;28;43577;-63
2021/12/29 04:47:56;;;;;;;121.30;27.88;;;;;;;4.81;100.00;100116.16;2080857;28;28581;-64
2021/12/29 04:49:01;;;;;;;100.13;27.30;;;;;;;4.81;100.00;100118.81;2080340;28;45799;-63
2021/12/29 04:50:05;;;;;;;107.60;27.75;;;;;;;4.80;100.00;100114.41;2080606;28;44674;-64
2021/12/29 04:51:14;;;;;;;105.32;27.40;;;;;;;4.82;100.00;100109.94;2080283;28;45654;-63
2021/12/29 04:52:15;;;;;;;109.95;28.27;;;;;;;4.82;100.00;100117.03;2079200;28;45621;-64
2021/12/29 04:53:24;;;;;;;105.50;25.48;;;;;;;4.82;100.00;100115.25;2081328;28;30855;-62
2021/12/29 04:54:26;;;;;;;116.18;28.75;;;;;;;4.82;100.00;100120.56;2080226;28;46496;-65
2021/12/29 04:55:28;;;;;;;109.55;29.50;;;;;;;4.83;100.00;100121.44;2080807;28;43410;-63
2021/12/29 04:56:31;;;;;;;108.50;29.48;;;;;;;4.81;100.00;100124.13;2080273;28;44266;-64